createdAt,value
2022-11-20T13:49:45.321Z,18.45
2022-11-20T13:52:27.991Z,17.02
2022-11-20T13:55:03.013Z,18.13
2022-11-20T13:57:43.736Z,17.35
2022-11-20T14:00:12.557Z,17.63
2022-11-20T14:02:39.507Z,17.27
2022-11-20T14:05:14.365Z,19.08
2022-11-20T14:07:43.401Z,18.42
2022-11-20T14:10:20.178Z,18.90
2022-11-20T14:12:48.716Z,17.83
2022-11-20T14:15:24.754Z,18.20
2022-11-20T14:17:51.267Z,18.33
2022-11-20T14:20:24.176Z,17.83
2022-11-20T14:22:51.441Z,16.13
2022-11-20T14:25:28.058Z,15.75
2022-11-20T14:27:55.782Z,15.68
2022-11-20T14:30:23.851Z,14.75
2022-11-20T14:32:50.816Z,14.10
2022-11-20T14:35:22.425Z,14.10
2022-11-20T14:37:48.998Z,14.63
2022-11-20T14:40:26.558Z,13.93
2022-11-20T14:42:53.032Z,12.90
2022-11-20T14:45:20.485Z,14.27
2022-11-20T14:47:47.491Z,13.85
2022-11-20T14:50:15.354Z,13.93
2022-11-20T14:52:51.143Z,13.90
2022-11-20T14:55:25.858Z,13.52
2022-11-20T14:57:55.713Z,22.90
2022-11-20T15:00:23.090Z,18.50
2022-11-20T15:02:50.417Z,14.45
2022-11-20T15:05:18.158Z,14.57
2022-11-20T15:07:48.978Z,17.15
2022-11-20T15:10:22.974Z,17.08
2022-11-20T15:15:18.047Z,16.23
2022-11-20T15:17:44.574Z,17.67
2022-11-20T15:20:13.200Z,20.23
2022-11-20T15:22:39.766Z,19.67
2022-11-20T15:25:12.320Z,20.95
2022-11-20T15:27:38.841Z,51.47
2022-11-20T15:30:13.021Z,35.22
2022-11-20T15:32:39.869Z,19.25
2022-11-20T15:35:06.956Z,16.25
2022-11-20T15:37:33.480Z,17.65
2022-11-20T15:40:00.007Z,17.48
2022-11-20T15:42:27.844Z,15.95
2022-11-20T15:44:54.385Z,17.50
2022-11-20T15:47:22.056Z,19.35
2022-11-20T15:49:48.600Z,24.27
2022-11-20T15:52:15.373Z,27.00
2022-11-20T15:54:41.896Z,29.88
2022-11-20T15:57:08.470Z,25.52
2022-11-20T15:59:40.771Z,20.10
2022-11-20T16:02:12.193Z,17.20
2022-11-20T16:04:42.594Z,19.45
2022-11-20T16:07:09.213Z,16.52
2022-11-20T16:09:35.939Z,18.50
2022-11-20T16:12:02.732Z,17.52
2022-11-20T16:14:47.795Z,16.55
2022-11-20T16:17:15.764Z,17.48
2022-11-20T16:19:42.364Z,19.52
2022-11-20T16:22:11.621Z,27.45
2022-11-20T16:24:38.197Z,30.33
2022-11-20T16:27:04.723Z,11.27
2022-11-20T16:29:31.373Z,6.13
2022-11-20T16:31:58.019Z,5.88
2022-11-20T16:34:26.043Z,4.95
2022-11-20T16:36:52.685Z,5.35
2022-11-20T16:39:23.701Z,4.85
2022-11-20T16:41:50.615Z,4.80
2022-11-20T16:44:17.161Z,4.28
2022-11-20T16:46:43.715Z,17.25
2022-11-20T16:50:49.431Z,5.10
2022-11-20T16:53:16.493Z,4.72
2022-11-20T16:55:43.270Z,4.65
2022-11-20T16:58:10.169Z,4.10
2022-11-20T17:00:37.775Z,3.70
2022-11-20T17:03:04.804Z,2.95
2022-11-20T17:05:32.332Z,2.67
2022-11-20T17:08:00.887Z,3.40
2022-11-20T17:10:30.749Z,3.38
2022-11-20T17:12:57.575Z,3.38
2022-11-20T17:15:24.327Z,3.55
2022-11-20T17:17:51.107Z,3.83
2022-11-20T17:20:17.756Z,3.80
2022-11-20T17:22:44.428Z,4.15
2022-11-20T17:25:12.556Z,6.18
2022-11-20T17:27:39.613Z,5.30
2022-11-20T17:30:07.307Z,4.90
2022-11-20T17:32:34.047Z,6.32
2022-11-20T17:35:00.829Z,6.13
2022-11-20T17:37:27.487Z,5.65
2022-11-20T17:39:54.236Z,5.10
2022-11-20T17:42:29.552Z,7.20
2022-11-20T17:44:58.776Z,8.10
2022-11-20T17:47:26.213Z,6.53
2022-11-20T17:49:53.707Z,14.80
2022-11-20T17:52:20.570Z,7.38
2022-11-20T17:54:47.378Z,4.15
2022-11-20T17:57:32.545Z,5.90
2022-11-20T18:00:01.863Z,4.22
2022-11-20T18:02:28.615Z,6.82
2022-11-20T18:04:55.287Z,4.93
2022-11-20T18:07:22.468Z,6.20
2022-11-20T18:09:49.512Z,4.82
2022-11-20T18:12:16.760Z,3.42
2022-11-20T18:14:43.814Z,3.28
2022-11-20T18:17:13.987Z,3.40
2022-11-20T18:19:55.529Z,3.15
2022-11-20T18:22:29.640Z,4.03
2022-11-20T18:24:56.417Z,3.90
2022-11-20T18:27:23.913Z,3.50
2022-11-20T18:29:52.267Z,3.85
2022-11-20T18:32:22.067Z,2.90
2022-11-20T18:34:48.898Z,3.90
2022-11-20T18:37:16.659Z,3.88
2022-11-20T18:39:43.965Z,3.05
2022-11-20T18:42:32.028Z,3.88
2022-11-20T18:45:00.279Z,3.53
2022-11-20T18:47:30.899Z,3.75
2022-11-20T18:49:59.994Z,5.55
2022-11-20T18:52:29.268Z,6.03
2022-11-20T18:54:57.198Z,3.22
2022-11-20T18:57:26.558Z,3.22
2022-11-20T18:59:53.833Z,3.22
2022-11-20T19:02:21.864Z,2.10
2022-11-20T19:04:49.883Z,2.55
2022-11-20T19:07:17.076Z,3.53
2022-11-20T19:09:47.701Z,2.33
2022-11-20T19:12:14.543Z,1.67
2022-11-20T19:14:41.374Z,18.27
2022-11-20T19:17:11.069Z,3.70
2022-11-20T19:19:37.815Z,2.95
2022-11-20T19:22:05.894Z,2.92
2022-11-20T19:24:32.702Z,4.85
2022-11-20T19:27:01.580Z,6.53
2022-11-20T19:29:29.059Z,5.25
2022-11-20T19:31:57.964Z,3.90
2022-11-20T19:34:26.076Z,5.00
2022-11-20T19:36:53.217Z,5.07
2022-11-20T19:39:22.735Z,3.03
2022-11-20T19:41:49.737Z,5.85
2022-11-20T19:44:17.657Z,4.97
2022-11-20T19:46:44.692Z,3.42
2022-11-20T19:49:13.519Z,2.45
2022-11-20T19:51:45.869Z,2.72
2022-11-20T19:54:12.844Z,3.70
2022-11-20T19:56:41.031Z,3.03
2022-11-20T19:59:07.864Z,2.90
2022-11-20T20:01:35.565Z,2.92
2022-11-20T20:04:03.630Z,2.22
2022-11-20T20:06:31.159Z,1.80
2022-11-20T20:08:59.562Z,2.35
2022-11-20T20:11:28.243Z,2.53
2022-11-20T20:13:56.442Z,3.05
2022-11-20T20:16:26.356Z,3.05
2022-11-20T20:18:56.184Z,4.03
2022-11-20T20:21:22.970Z,2.90
2022-11-20T20:23:51.338Z,3.20
2022-11-20T20:26:18.271Z,4.45
2022-11-20T20:28:44.970Z,2.20
2022-11-20T20:31:15.572Z,3.78
2022-11-20T20:33:43.078Z,5.43
2022-11-20T20:36:11.820Z,14.85
2022-11-20T20:38:41.131Z,5.07
2022-11-20T20:41:08.159Z,5.35
2022-11-20T20:43:55.646Z,4.97
2022-11-20T20:46:24.151Z,7.88
2022-11-20T20:48:54.401Z,7.68
2022-11-20T20:51:24.665Z,9.98
2022-11-20T20:53:52.999Z,5.18
2022-11-20T20:56:19.925Z,1.52
2022-11-20T20:58:47.556Z,2.00
2022-11-20T21:01:17.210Z,2.45
2022-11-20T21:03:45.527Z,4.47
2022-11-20T21:06:12.540Z,5.53
2022-11-20T21:08:40.904Z,3.47
2022-11-20T21:11:10.873Z,8.93
2022-11-20T21:13:38.839Z,2.17
2022-11-20T21:16:06.853Z,5.57
2022-11-20T21:18:33.720Z,1.98
2022-11-20T21:21:22.753Z,2.25
2022-11-20T21:23:49.735Z,1.70
2022-11-20T21:26:16.497Z,1.40
2022-11-20T21:28:43.477Z,6.82
2022-11-20T21:31:13.408Z,6.65
2022-11-20T21:33:41.803Z,3.10
2022-11-20T21:36:11.504Z,1.90
2022-11-20T21:38:38.578Z,2.30
2022-11-20T21:41:06.743Z,4.28
2022-11-20T21:43:33.705Z,2.70
2022-11-20T21:46:02.005Z,2.22
2022-11-20T21:48:30.314Z,1.63
2022-11-20T21:51:06.444Z,1.65
2022-11-20T21:53:35.612Z,2.45
2022-11-20T21:56:05.810Z,1.90
2022-11-20T21:58:33.921Z,2.40
2022-11-20T22:01:07.182Z,3.20
2022-11-20T22:03:33.858Z,3.15
2022-11-20T22:06:00.782Z,2.97
2022-11-20T22:08:27.577Z,1.90
2022-11-20T22:10:57.170Z,2.45
2022-11-20T22:13:42.794Z,3.00
2022-11-20T22:16:10.509Z,3.20
2022-11-20T22:18:42.759Z,6.22
2022-11-20T22:21:09.683Z,13.13
2022-11-20T22:23:36.644Z,4.68
2022-11-20T22:26:06.298Z,4.15
2022-11-20T22:28:33.322Z,5.47
2022-11-20T22:31:00.572Z,2.15
2022-11-20T22:33:28.610Z,3.78
2022-11-20T22:36:00.778Z,3.53
2022-11-20T22:38:29.594Z,2.63
2022-11-20T22:41:02.016Z,2.47
2022-11-20T22:43:30.737Z,3.30
2022-11-20T22:46:04.561Z,3.33
2022-11-20T22:48:32.976Z,2.45
2022-11-20T22:51:04.640Z,2.70
2022-11-20T22:53:31.414Z,2.55
2022-11-20T22:55:58.249Z,2.15
2022-11-20T22:58:25.045Z,1.30
2022-11-20T23:00:53.256Z,1.58
2022-11-20T23:03:20.378Z,1.30
2022-11-20T23:05:47.191Z,1.40
2022-11-20T23:08:13.961Z,0.95
2022-11-20T23:10:40.725Z,1.52
2022-11-20T23:13:07.580Z,1.10
2022-11-20T23:15:34.678Z,0.90
2022-11-20T23:18:02.716Z,0.90
2022-11-20T23:20:29.748Z,1.10
2022-11-20T23:22:56.464Z,0.95
2022-11-20T23:25:23.277Z,1.02
2022-11-20T23:27:50.001Z,1.20
2022-11-20T23:30:16.927Z,1.40
2022-11-20T23:32:43.682Z,1.00
2022-11-20T23:35:11.780Z,1.08
2022-11-20T23:37:38.451Z,1.10
2022-11-20T23:40:06.536Z,0.98
2022-11-20T23:42:33.701Z,0.82
2022-11-20T23:45:00.392Z,0.93
2022-11-20T23:47:27.147Z,1.10
2022-11-20T23:49:53.823Z,1.20
2022-11-20T23:52:22.316Z,0.80
2022-11-20T23:54:50.544Z,1.02
2022-11-20T23:57:17.258Z,1.75
2022-11-20T23:59:43.968Z,1.20
